Time;durP1;ratioP1;P1;durP2;ratioP2;P2;SDS_P1;SDS_P2;PMS_P1;PMS_P2;Temp;Humidity;BMP_temperature;BMP_pressure;BME280_temperature;BME280_humidity;BME280_pressure;Samples;Min_cycle;Max_cycle;Signal;HPM_P1;HPM_P2
2022/10/05 00:00:50;;;;;;;2.40;2.20;;;12.90;99.90;;;;;;5139427;28;20435;-38
2022/10/05 00:03:19;;;;;;;3.43;2.30;;;12.80;99.90;;;;;;5139054;27;20464;-44
2022/10/05 00:05:47;;;;;;;3.10;2.17;;;12.80;99.90;;;;;;5138419;28;20460;-42
2022/10/05 00:08:18;;;;;;;5.90;3.10;;;12.70;99.90;;;;;;5138086;27;20470;-40
2022/10/05 00:10:45;;;;;;;3.80;2.57;;;12.70;99.90;;;;;;5138448;28;20793;-41
2022/10/05 00:13:14;;;;;;;5.27;3.03;;;12.70;99.90;;;;;;5139297;27;20428;-40
2022/10/05 00:15:41;;;;;;;2.23;1.93;;;12.60;99.90;;;;;;5139932;28;20429;-39
2022/10/05 00:18:14;;;;;;;3.07;2.77;;;12.60;99.90;;;;;;5139899;27;20444;-39
2022/10/05 00:20:44;;;;;;;6.53;2.77;;;12.50;99.90;;;;;;5139793;28;20429;-41
2022/10/05 00:23:18;;;;;;;5.53;2.60;;;12.50;99.90;;;;;;5139460;28;20763;-37
2022/10/05 00:25:45;;;;;;;4.30;2.73;;;12.50;99.90;;;;;;5139566;27;20472;-46
2022/10/05 00:28:18;;;;;;;3.83;2.53;;;12.40;99.90;;;;;;5139062;28;20449;-44
2022/10/05 00:30:44;;;;;;;12.90;3.27;;;12.40;99.90;;;;;;5139136;28;20425;-46
2022/10/05 00:33:11;;;;;;;6.27;3.20;;;12.40;99.90;;;;;;5138735;28;20434;-45
2022/10/05 00:35:38;;;;;;;11.33;2.47;;;12.40;99.90;;;;;;5138738;27;20573;-47
2022/10/05 00:38:05;;;;;;;8.20;3.03;;;12.40;99.90;;;;;;5138691;28;20755;-49
2022/10/05 00:40:41;;;;;;;4.80;2.97;;;12.40;99.90;;;;;;5138245;28;20433;-39
2022/10/05 00:43:25;;;;;;;3.63;2.80;;;12.30;99.90;;;;;;5137616;28;20460;-42
2022/10/05 00:46:00;;;;;;;4.77;2.50;;;12.30;99.90;;;;;;5137479;28;20533;-46
2022/10/05 00:48:36;;;;;;;4.20;2.43;;;12.20;99.90;;;;;;5137423;28;20460;-44
2022/10/05 00:51:21;;;;;;;3.60;2.67;;;12.20;99.90;;;;;;5137726;28;20421;-45
2022/10/05 00:53:55;;;;;;;17.77;3.30;;;12.20;99.90;;;;;;5137133;28;20453;-47
2022/10/05 00:57:00;;;;;;;2.87;2.40;;;12.20;99.90;;;;;;5137597;28;20408;-39
2022/10/05 00:59:35;;;;;;;4.97;2.03;;;12.20;99.90;;;;;;5137211;28;20424;-46
2022/10/05 01:02:08;;;;;;;5.17;2.87;;;12.10;99.90;;;;;;5137656;28;20420;-41
2022/10/05 01:04:45;;;;;;;4.10;2.67;;;12.10;99.90;;;;;;5137498;28;20445;-47
2022/10/05 01:07:22;;;;;;;3.20;2.40;;;12.10;99.90;;;;;;5135827;28;20453;-46
2022/10/05 01:09:56;;;;;;;4.30;2.47;;;11.90;99.90;;;;;;5137021;28;20412;-48
2022/10/05 01:12:31;;;;;;;3.07;2.00;;;12.10;99.90;;;;;;5137418;28;20439;-43
2022/10/05 01:15:05;;;;;;;18.97;2.30;;;12.10;99.90;;;;;;5136989;28;20432;-41
2022/10/05 01:17:40;;;;;;;3.97;2.43;;;12.20;99.90;;;;;;5137269;28;20406;-47
2022/10/05 01:20:19;;;;;;;3.23;1.90;;;12.20;99.90;;;;;;5136647;28;20475;-45
2022/10/05 01:23:16;;;;;;;2.50;2.30;;;12.20;99.90;;;;;;5136797;28;20452;-47
2022/10/05 01:25:56;;;;;;;3.27;2.23;;;12.20;99.90;;;;;;5137032;28;20419;-39
2022/10/05 01:28:41;;;;;;;6.90;3.60;;;12.20;99.90;;;;;;5137304;28;20428;-42
2022/10/05 01:31:17;;;;;;;4.73;2.40;;;12.20;99.90;;;;;;5136769;28;20444;-43
2022/10/05 01:33:47;;;;;;;3.20;2.30;;;12.30;99.90;;;;;;5136689;28;20507;-45
2022/10/05 01:36:22;;;;;;;3.60;2.80;;;12.30;99.90;;;;;;5137057;27;20443;-40
2022/10/05 01:38:59;;;;;;;6.60;2.40;;;12.30;99.90;;;;;;5136369;28;20431;-48
2022/10/05 01:41:33;;;;;;;4.80;2.80;;;12.30;99.90;;;;;;5136312;28;20470;-42
2022/10/05 01:44:07;;;;;;;4.40;2.23;;;12.30;99.90;;;;;;5136692;28;20543;-43
2022/10/05 01:46:39;;;;;;;3.20;2.70;;;12.30;99.90;;;;;;5136559;28;20472;-41
2022/10/05 01:49:21;;;;;;;5.20;2.80;;;12.30;99.90;;;;;;5136722;28;20913;-44
2022/10/05 01:51:57;;;;;;;3.33;2.87;;;12.30;99.90;;;;;;5136912;28;20429;-43
2022/10/05 01:54:38;;;;;;;4.10;2.47;;;12.30;99.90;;;;;;5136812;28;20448;-43
2022/10/05 01:57:11;;;;;;;4.43;3.27;;;12.30;99.90;;;;;;5137335;28;20423;-42
2022/10/05 02:00:02;;;;;;;3.30;2.80;;;12.30;99.90;;;;;;5138068;27;20527;-38
2022/10/05 02:02:34;;;;;;;21.60;3.10;;;12.20;99.90;;;;;;5137997;28;20477;-37
2022/10/05 02:05:06;;;;;;;3.87;2.67;;;12.20;99.90;;;;;;5138327;27;20409;-34
2022/10/05 02:07:38;;;;;;;3.87;2.83;;;12.10;99.90;;;;;;5138250;28;20444;-41
2022/10/05 02:10:10;;;;;;;2.90;2.57;;;12.10;99.90;;;;;;5138440;27;20451;-38
2022/10/05 02:12:38;;;;;;;4.20;2.33;;;12.00;99.90;;;;;;5138234;28;20413;-41
2022/10/05 02:15:12;;;;;;;4.77;3.13;;;12.00;99.90;;;;;;5138009;27;20453;-36
2022/10/05 02:17:44;;;;;;;3.50;2.27;;;11.90;99.90;;;;;;5139594;28;20454;-45
2022/10/05 02:20:14;;;;;;;3.03;2.53;;;11.90;99.90;;;;;;5142112;28;20460;-38
2022/10/05 02:22:44;;;;;;;6.90;3.40;;;11.90;99.90;;;;;;5141940;28;20421;-38
2022/10/05 02:25:14;;;;;;;5.23;3.40;;;11.90;99.90;;;;;;5142202;28;20416;-41
2022/10/05 02:27:45;;;;;;;4.70;3.27;;;11.90;99.90;;;;;;5142115;28;20464;-43
2022/10/05 02:30:16;;;;;;;3.30;2.20;;;11.80;99.90;;;;;;5142522;27;20428;-45
2022/10/05 02:32:51;;;;;;;4.97;2.30;;;11.80;99.90;;;;;;5141891;28;20468;-39
2022/10/05 02:35:20;;;;;;;4.37;2.87;;;11.80;99.90;;;;;;5141618;28;20440;-41
2022/10/05 02:37:56;;;;;;;4.27;2.27;;;11.80;99.90;;;;;;5140919;28;20441;-43
2022/10/05 02:40:34;;;;;;;3.57;2.20;;;11.80;99.90;;;;;;5140313;28;20487;-42
2022/10/05 02:43:08;;;;;;;4.03;2.50;;;11.70;99.90;;;;;;5140398;28;20460;-42
2022/10/05 02:45:46;;;;;;;4.53;4.07;;;11.70;99.90;;;;;;5139947;28;20432;-46
2022/10/05 02:48:20;;;;;;;4.57;2.77;;;11.70;99.90;;;;;;5140200;28;20432;-48
2022/10/05 02:50:53;;;;;;;4.30;3.03;;;11.70;99.90;;;;;;5139943;28;20421;-46
2022/10/05 02:53:27;;;;;;;11.80;3.20;;;11.70;99.90;;;;;;5140519;27;20440;-39
2022/10/05 02:56:07;;;;;;;2.90;2.13;;;11.70;99.90;;;;;;5141041;28;20431;-41
2022/10/05 02:58:41;;;;;;;5.30;2.27;;;11.60;99.90;;;;;;5139743;28;20420;-44
2022/10/05 03:01:21;;;;;;;5.80;3.17;;;11.60;99.90;;;;;;5140159;28;20416;-41
2022/10/05 03:04:13;;;;;;;4.57;3.00;;;11.60;99.90;;;;;;5139390;28;20471;-45
2022/10/05 03:06:47;;;;;;;3.20;2.27;;;11.70;99.90;;;;;;5139533;28;20454;-46
2022/10/05 03:09:17;;;;;;;5.07;2.80;;;11.60;99.90;;;;;;5139347;28;20439;-43
2022/10/05 03:11:51;;;;;;;2.17;1.97;;;11.60;99.90;;;;;;5139894;27;20500;-42
2022/10/05 03:14:23;;;;;;;3.80;2.70;;;11.60;99.90;;;;;;5140530;28;20409;-41
2022/10/05 03:17:02;;;;;;;2.90;2.20;;;11.60;99.90;;;;;;5140157;28;20437;-39
2022/10/05 03:19:47;;;;;;;12.33;3.70;;;11.60;99.90;;;;;;5139877;28;20474;-44
2022/10/05 03:22:24;;;;;;;2.90;2.40;;;11.60;99.90;;;;;;5139500;28;20430;-47
2022/10/05 03:25:04;;;;;;;3.70;2.80;;;11.60;99.90;;;;;;5139032;28;20467;-48
2022/10/05 03:27:40;;;;;;;5.53;2.70;;;11.60;99.90;;;;;;5139455;28;20421;-45
2022/10/05 03:30:12;;;;;;;4.53;3.27;;;11.70;99.90;;;;;;5138498;28;20420;-42
2022/10/05 03:32:48;;;;;;;4.13;2.97;;;11.70;99.90;;;;;;5139517;28;20776;-40
2022/10/05 03:35:33;;;;;;;4.37;2.70;;;11.70;99.90;;;;;;5139070;28;20408;-42
2022/10/05 03:38:08;;;;;;;3.00;2.70;;;11.80;99.90;;;;;;5139723;28;20508;-49
2022/10/05 03:40:39;;;;;;;8.47;4.27;;;11.80;99.90;;;;;;5140045;28;20415;-44
2022/10/05 03:43:22;;;;;;;7.73;2.63;;;11.80;99.90;;;;;;5139968;27;20421;-48
2022/10/05 03:45:57;;;;;;;5.30;2.70;;;11.80;99.90;;;;;;5139592;28;20460;-39
2022/10/05 03:48:32;;;;;;;4.73;3.40;;;11.80;99.90;;;;;;5139848;28;20424;-41
2022/10/05 03:51:05;;;;;;;4.20;2.50;;;11.90;99.90;;;;;;5139773;28;20420;-41
2022/10/05 03:53:39;;;;;;;5.40;2.93;;;11.80;99.90;;;;;;5138879;28;20459;-38
2022/10/05 03:56:12;;;;;;;8.30;2.53;;;11.80;99.90;;;;;;5139248;28;20435;-40
2022/10/05 03:58:44;;;;;;;4.37;3.10;;;11.80;99.90;;;;;;5138073;28;20525;-42
2022/10/05 04:01:19;;;;;;;3.83;3.53;;;11.80;99.90;;;;;;5138535;28;20430;-41
2022/10/05 04:03:50;;;;;;;4.80;3.40;;;11.80;99.90;;;;;;5138056;28;20486;-42
2022/10/05 04:06:22;;;;;;;3.33;2.33;;;11.80;99.90;;;;;;5138165;28;20524;-44
2022/10/05 04:08:54;;;;;;;5.40;2.80;;;11.80;99.90;;;;;;5138007;28;20417;-42
2022/10/05 04:11:26;;;;;;;9.17;2.60;;;11.80;99.90;;;;;;5137969;28;20474;-44
2022/10/05 04:13:58;;;;;;;5.10;2.63;;;11.80;99.90;;;;;;5138136;28;20439;-40
2022/10/05 04:16:29;;;;;;;5.80;2.53;;;11.90;99.90;;;;;;5137759;28;20421;-43
2022/10/05 04:19:04;;;;;;;5.20;2.20;;;11.80;99.90;;;;;;5137714;28;20495;-39
2022/10/05 04:21:35;;;;;;;6.20;2.53;;;11.80;99.90;;;;;;5137553;28;20870;-43
2022/10/05 04:24:09;;;;;;;4.33;3.20;;;11.80;99.90;;;;;;5137831;28;20456;-38
2022/10/05 04:26:43;;;;;;;3.03;2.27;;;11.80;99.90;;;;;;5137652;28;20484;-39
2022/10/05 04:29:17;;;;;;;6.20;2.70;;;11.80;99.90;;;;;;5137304;28;20448;-42
2022/10/05 04:32:00;;;;;;;5.90;3.60;;;11.80;99.90;;;;;;5138115;27;20474;-42
2022/10/05 04:34:42;;;;;;;4.90;2.97;;;11.80;99.90;;;;;;5138397;28;20416;-49
2022/10/05 04:40:12;;;;;;;2.77;2.57;;;11.80;99.90;;;;;;5134738;27;20996;-49
2022/10/05 04:42:47;;;;;;;4.57;3.57;;;11.80;99.90;;;;;;5138281;28;20447;-44
2022/10/05 04:45:25;;;;;;;5.07;2.70;;;11.70;99.90;;;;;;5137791;27;20559;-48
2022/10/05 04:48:16;;;;;;;5.20;2.97;;;11.70;99.90;;;;;;5137860;28;20434;-46
2022/10/05 04:50:57;;;;;;;4.23;3.20;;;11.80;99.90;;;;;;5137614;28;20428;-46
2022/10/05 04:53:31;;;;;;;6.53;2.90;;;11.70;99.90;;;;;;5137622;28;20425;-48
2022/10/05 04:56:03;;;;;;;4.63;2.90;;;11.70;99.90;;;;;;5138131;28;20413;-48
2022/10/05 04:58:39;;;;;;;3.37;2.67;;;11.70;99.90;;;;;;5137400;28;20452;-47
2022/10/05 05:01:22;;;;;;;5.03;2.90;;;11.70;99.90;;;;;;5137751;28;20427;-46
2022/10/05 05:04:07;;;;;;;2.80;2.50;;;11.80;99.90;;;;;;5137307;28;20461;-44
2022/10/05 05:06:42;;;;;;;3.00;2.43;;;11.70;99.90;;;;;;5137501;28;20435;-46
2022/10/05 05:09:53;;;;;;;6.30;4.00;;;11.70;99.90;;;;;;5137626;27;20440;-47
2022/10/05 05:12:26;;;;;;;3.80;3.23;;;11.70;99.90;;;;;;5137671;28;20461;-46
2022/10/05 05:15:20;;;;;;;6.07;2.70;;;11.70;99.90;;;;;;5137516;28;20417;-49
2022/10/05 05:18:00;;;;;;;5.17;3.20;;;11.70;99.90;;;;;;5137191;28;20504;-44
2022/10/05 05:20:39;;;;;;;6.13;3.70;;;11.80;99.90;;;;;;5137607;28;20420;-43
2022/10/05 05:23:14;;;;;;;4.47;2.90;;;11.80;99.90;;;;;;5137266;28;20427;-48
2022/10/05 05:25:48;;;;;;;12.33;3.97;;;11.80;99.90;;;;;;5137127;28;20479;-43
2022/10/05 05:28:25;;;;;;;4.40;2.90;;;11.90;99.90;;;;;;5137065;28;20421;-46
2022/10/05 05:31:00;;;;;;;4.50;3.40;;;11.90;99.90;;;;;;5137366;28;20512;-48
2022/10/05 05:33:39;;;;;;;4.70;3.60;;;11.90;99.90;;;;;;5137760;28;20405;-46
2022/10/05 05:36:21;;;;;;;7.63;3.13;;;11.90;99.90;;;;;;5138234;27;20488;-47
2022/10/05 05:38:59;;;;;;;5.93;3.60;;;11.90;99.90;;;;;;5138464;27;20446;-42
2022/10/05 05:41:39;;;;;;;6.90;3.57;;;11.90;99.90;;;;;;5138008;28;20415;-46
2022/10/05 05:44:15;;;;;;;4.57;3.00;;;11.90;99.90;;;;;;5137111;28;20531;-46
2022/10/05 05:46:48;;;;;;;4.37;2.17;;;12.00;99.90;;;;;;5136455;28;20515;-46
2022/10/05 05:49:18;;;;;;;2.73;2.50;;;11.90;99.90;;;;;;5137074;28;20448;-42
2022/10/05 05:51:52;;;;;;;6.00;2.93;;;11.90;99.90;;;;;;5136593;28;20416;-45
2022/10/05 05:54:27;;;;;;;5.80;3.80;;;12.00;99.90;;;;;;5137610;27;20425;-43
2022/10/05 05:57:06;;;;;;;2.97;2.67;;;12.00;99.90;;;;;;5137622;28;20446;-49
2022/10/05 05:59:47;;;;;;;5.57;3.03;;;12.00;99.90;;;;;;5138101;27;20425;-46
2022/10/05 06:02:18;;;;;;;6.50;3.10;;;12.00;99.90;;;;;;5137886;27;20532;-42
2022/10/05 06:04:49;;;;;;;5.37;3.63;;;12.00;99.90;;;;;;5135820;27;20472;-49
2022/10/05 06:07:24;;;;;;;5.07;3.23;;;12.10;99.90;;;;;;5104008;28;20472;-52
2022/10/05 06:09:58;;;;;;;3.40;2.90;;;12.10;99.90;;;;;;5100401;28;20441;-48
2022/10/05 06:12:29;;;;;;;5.77;3.10;;;12.10;99.90;;;;;;5100117;28;20824;-48
2022/10/05 06:15:00;;;;;;;4.67;3.00;;;12.20;99.90;;;;;;5121864;28;20434;-50
2022/10/05 06:17:33;;;;;;;7.23;2.90;;;11.60;99.90;;;;;;5106931;28;20449;-45
2022/10/05 06:20:02;;;;;;;5.87;3.07;;;12.30;99.90;;;;;;5123065;28;20440;-48
2022/10/05 06:22:34;;;;;;;3.33;2.73;;;12.30;99.90;;;;;;5128107;28;20440;-45
2022/10/05 06:25:18;;;;;;;5.80;2.90;;;12.30;99.90;;;;;;5115421;28;20480;-42
2022/10/05 06:28:01;;;;;;;4.30;2.60;;;12.40;99.90;;;;;;5117907;28;20454;-47
2022/10/05 06:30:38;;;;;;;5.80;2.93;;;12.40;99.90;;;;;;5118559;28;20539;-46
2022/10/05 06:33:17;;;;;;;5.87;3.40;;;12.50;99.90;;;;;;5119827;28;20428;-45
2022/10/05 06:35:59;;;;;;;3.33;3.03;;;12.50;99.90;;;;;;5115959;28;20467;-49
2022/10/05 06:38:59;;;;;;;4.60;3.60;;;12.50;99.90;;;;;;5098899;28;20463;-46
2022/10/05 06:41:40;;;;;;;4.33;2.70;;;12.60;99.90;;;;;;5087395;28;20483;-45
2022/10/05 06:44:14;;;;;;;9.23;2.80;;;12.70;99.90;;;;;;5098339;28;20437;-46
2022/10/05 06:46:53;;;;;;;4.70;3.10;;;12.80;99.90;;;;;;5097805;28;20484;-52
2022/10/05 06:49:23;;;;;;;4.17;3.00;;;12.90;99.90;;;;;;5098275;28;20425;-51
2022/10/05 06:51:57;;;;;;;5.13;3.40;;;13.00;99.90;;;;;;5098620;28;20441;-49
2022/10/05 06:54:38;;;;;;;5.13;2.70;;;13.10;99.90;;;;;;5109750;28;20449;-47
2022/10/05 06:57:15;;;;;;;3.10;2.80;;;13.10;99.90;;;;;;5115370;28;20464;-48
2022/10/05 06:59:49;;;;;;;3.20;2.60;;;13.20;99.90;;;;;;5117783;28;20428;-51
2022/10/05 07:02:34;;;;;;;7.70;3.20;;;13.20;99.90;;;;;;5102569;28;20436;-48
2022/10/05 07:05:30;;;;;;;4.53;2.43;;;13.20;99.90;;;;;;5101344;28;20981;-43
2022/10/05 07:07:59;;;;;;;4.27;2.77;;;13.30;99.90;;;;;;5114514;28;20437;-49
2022/10/05 07:10:31;;;;;;;8.20;3.00;;;13.40;99.90;;;;;;5116144;28;20433;-45
2022/10/05 07:13:15;;;;;;;3.73;2.53;;;13.40;99.90;;;;;;5121872;28;20431;-48
2022/10/05 07:15:48;;;;;;;3.60;2.70;;;13.40;99.90;;;;;;5121103;28;20475;-47
2022/10/05 07:18:56;;;;;;;2.83;2.27;;;13.40;99.90;;;;;;5122782;28;20493;-48
2022/10/05 07:21:33;;;;;;;2.90;2.50;;;13.40;99.90;;;;;;5106282;28;20460;-46
2022/10/05 07:24:08;;;;;;;13.47;3.50;;;13.50;99.90;;;;;;5120938;28;20517;-44
2022/10/05 07:26:40;;;;;;;3.43;2.10;;;13.50;99.90;;;;;;5122044;28;20463;-52
2022/10/05 07:29:21;;;;;;;8.77;2.53;;;13.50;99.90;;;;;;5110364;28;20453;-53
2022/10/05 07:31:56;;;;;;;4.50;2.50;;;13.70;99.90;;;;;;5101132;28;20421;-47
2022/10/05 07:34:36;;;;;;;4.67;2.70;;;13.70;99.90;;;;;;5101151;28;20431;-46
2022/10/05 07:40:04;;;;;;;4.40;2.80;;;13.90;99.90;;;;;;5100161;28;20433;-46
2022/10/05 07:42:42;;;;;;;7.47;3.93;;;14.00;99.90;;;;;;5100448;28;20495;-46
2022/10/05 07:45:18;;;;;;;3.97;2.53;;;14.10;99.90;;;;;;5099672;28;20487;-47
2022/10/05 07:47:52;;;;;;;4.77;2.87;;;14.30;99.90;;;;;;5099976;28;20421;-50
2022/10/05 07:50:24;;;;;;;3.43;2.50;;;14.40;99.90;;;;;;5100094;28;20798;-48
2022/10/05 07:52:56;;;;;;;6.90;2.70;;;14.50;99.90;;;;;;5100367;28;20748;-46
2022/10/05 07:55:26;;;;;;;15.10;2.90;;;14.60;99.90;;;;;;5099969;28;20556;-47
2022/10/05 07:58:05;;;;;;;2.90;2.40;;;14.60;99.90;;;;;;5100304;28;20519;-47
2022/10/05 08:00:51;;;;;;;4.70;2.23;;;14.60;99.90;;;;;;5100606;28;20444;-46
2022/10/05 08:03:27;;;;;;;4.27;2.73;;;14.60;99.90;;;;;;5100609;28;20483;-47
2022/10/05 08:05:54;;;;;;;3.83;1.80;;;14.70;99.90;;;;;;5099916;28;20471;-46
2022/10/05 08:08:28;;;;;;;3.63;1.97;;;14.80;99.90;;;;;;5099991;28;20539;-44
2022/10/05 08:11:02;;;;;;;2.47;1.93;;;15.00;99.90;;;;;;5099859;28;20469;-47
2022/10/05 08:13:34;;;;;;;3.57;2.40;;;15.20;99.90;;;;;;5099601;28;21001;-48
2022/10/05 08:16:11;;;;;;;3.07;2.47;;;15.30;99.90;;;;;;5099672;28;20455;-47
2022/10/05 08:18:48;;;;;;;5.00;2.40;;;15.30;99.90;;;;;;5098610;28;20479;-48
2022/10/05 08:21:18;;;;;;;4.10;2.23;;;15.40;99.90;;;;;;5100759;28;20440;-46
2022/10/05 08:23:50;;;;;;;2.63;2.40;;;15.50;99.90;;;;;;5097938;28;20918;-49
2022/10/05 08:26:24;;;;;;;3.47;2.07;;;15.60;99.90;;;;;;5097640;28;20465;-49
2022/10/05 08:29:03;;;;;;;2.60;2.00;;;15.60;99.90;;;;;;5097530;28;20524;-52
2022/10/05 08:31:35;;;;;;;4.60;2.93;;;15.70;99.90;;;;;;5097415;28;20486;-53
2022/10/05 08:34:19;;;;;;;2.90;2.13;;;15.90;99.90;;;;;;5097349;28;20589;-52
2022/10/05 08:36:55;;;;;;;3.10;2.40;;;16.10;99.90;;;;;;5097823;28;20929;-47
2022/10/05 08:39:24;;;;;;;4.77;2.80;;;16.20;99.90;;;;;;5097180;28;20820;-48
2022/10/05 08:42:26;;;;;;;5.00;2.30;;;16.40;99.90;;;;;;5097374;28;20556;-47
2022/10/05 08:45:39;;;;;;;5.50;2.60;;;16.60;99.90;;;;;;5097132;28;20473;-45
2022/10/05 08:48:44;;;;;;;2.23;2.00;;;16.60;99.90;;;;;;5098128;28;20461;-48
2022/10/05 08:51:39;;;;;;;3.03;2.30;;;16.80;99.90;;;;;;5097487;28;20421;-45
2022/10/05 08:54:43;;;;;;;3.13;2.60;;;17.00;99.90;;;;;;5097551;28;20552;-45
2022/10/05 08:57:38;;;;;;;5.77;2.23;;;17.20;99.90;;;;;;5066913;28;20445;-46
2022/10/05 09:00:14;;;;;;;4.63;2.53;;;17.30;99.90;;;;;;5100625;28;20453;-43
2022/10/05 09:03:03;;;;;;;3.30;3.00;;;17.40;99.90;;;;;;5118379;28;20452;-49
2022/10/05 09:06:13;;;;;;;2.47;1.80;;;17.40;99.90;;;;;;5096118;28;20993;-45
2022/10/05 09:09:10;;;;;;;3.00;2.70;;;17.50;99.90;;;;;;5093054;28;20502;-51
2022/10/05 09:11:39;;;;;;;4.47;2.93;;;17.60;99.90;;;;;;5095976;28;20458;-49
2022/10/05 09:14:28;;;;;;;3.40;2.77;;;17.60;99.90;;;;;;5096629;28;20448;-44
2022/10/05 09:17:15;;;;;;;2.93;2.63;;;17.60;99.90;;;;;;5097548;28;20497;-47
2022/10/05 09:20:24;;;;;;;7.87;2.50;;;17.50;99.90;;;;;;5097407;28;20819;-49
2022/10/05 09:23:00;;;;;;;2.80;2.27;;;17.40;99.90;;;;;;5074622;28;20758;-48
2022/10/05 09:25:42;;;;;;;7.27;3.57;;;17.30;99.90;;;;;;5096283;28;20465;-45
2022/10/05 09:28:23;;;;;;;3.13;2.60;;;17.20;99.90;;;;;;5095322;28;20471;-49
2022/10/05 09:31:33;;;;;;;4.07;2.37;;;17.30;99.90;;;;;;5096498;28;20441;-49
2022/10/05 09:34:26;;;;;;;4.50;3.37;;;17.30;99.90;;;;;;5075703;28;20477;-46
2022/10/05 09:37:25;;;;;;;5.93;2.57;;;17.20;99.90;;;;;;5097330;28;20851;-46
2022/10/05 09:40:49;;;;;;;3.33;2.30;;;17.00;99.90;;;;;;5105932;28;20469;-45
2022/10/05 09:43:52;;;;;;;6.40;2.83;;;17.10;99.90;;;;;;5019866;28;20460;-46
2022/10/05 09:46:45;;;;;;;3.00;2.13;;;17.00;99.90;;;;;;5033149;28;20491;-44
2022/10/05 09:49:57;;;;;;;4.00;2.70;;;17.20;99.90;;;;;;5116145;28;20516;-46
2022/10/05 09:53:05;;;;;;;3.50;2.47;;;17.10;99.90;;;;;;5076394;28;20481;-49
2022/10/05 09:56:00;;;;;;;2.90;2.30;;;17.20;99.90;;;;;;5097724;28;20477;-48
2022/10/05 09:59:14;;;;;;;3.03;2.70;;;17.20;99.90;;;;;;5097447;28;20474;-46
2022/10/05 10:02:06;;;;;;;4.07;2.47;;;17.40;99.90;;;;;;5087998;28;20513;-46
2022/10/05 10:04:54;;;;;;;4.70;2.80;;;17.80;99.90;;;;;;5095283;28;20465;-44
2022/10/05 10:07:59;;;;;;;5.20;2.70;;;18.10;99.90;;;;;;5108916;28;20497;-46
2022/10/05 10:11:08;;;;;;;3.17;2.87;;;18.50;99.90;;;;;;5082174;28;20777;-45
2022/10/05 10:14:20;;;;;;;13.13;5.40;;;18.80;99.90;;;;;;5117727;28;20508;-44
2022/10/05 10:17:09;;;;;;;5.13;2.90;;;19.30;99.90;;;;;;5096970;28;20513;-47
2022/10/05 10:20:01;;;;;;;206.83;75.83;;;18.90;99.90;;;;;;5082662;28;20464;-43
2022/10/05 10:23:04;;;;;;;4.20;3.00;;;18.90;99.90;;;;;;5096074;28;20472;-51
2022/10/05 10:25:52;;;;;;;4.13;2.77;;;19.00;99.90;;;;;;5094866;28;20479;-50
2022/10/05 10:28:40;;;;;;;4.03;2.03;;;19.10;99.90;;;;;;5111695;27;20525;-46
2022/10/05 10:31:28;;;;;;;4.70;2.50;;;19.10;99.90;;;;;;5121028;28;20442;-47
2022/10/05 10:34:21;;;;;;;2.40;2.20;;;19.10;99.90;;;;;;5115576;28;20440;-42
2022/10/05 10:37:07;;;;;;;4.60;2.83;;;19.00;99.90;;;;;;5129951;28;20425;-44
2022/10/05 10:39:49;;;;;;;3.23;2.90;;;18.90;99.90;;;;;;5129097;28;20412;-45
2022/10/05 10:42:40;;;;;;;4.20;2.97;;;18.80;99.90;;;;;;5131077;27;20445;-43
2022/10/05 10:45:20;;;;;;;9.33;4.80;;;18.70;99.90;;;;;;5129999;27;20461;-44
2022/10/05 10:47:52;;;;;;;8.73;3.40;;;18.60;99.90;;;;;;5123380;28;20785;-46
2022/10/05 10:51:04;;;;;;;3.40;2.60;;;18.60;99.90;;;;;;5123128;28;20469;-41
2022/10/05 10:54:02;;;;;;;5.73;2.97;;;18.60;99.90;;;;;;5045154;28;20524;-42
2022/10/05 10:56:58;;;;;;;6.10;2.67;;;18.70;99.90;;;;;;5125177;28;20476;-43
2022/10/05 11:00:01;;;;;;;3.33;3.00;;;18.80;99.90;;;;;;5097043;28;20496;-44
2022/10/05 11:02:56;;;;;;;3.40;2.30;;;19.00;99.90;;;;;;5123563;28;20461;-43
2022/10/05 11:05:54;;;;;;;2.83;2.50;;;19.00;99.90;;;;;;5126791;28;20456;-45
2022/10/05 11:08:52;;;;;;;3.77;2.60;;;19.10;99.90;;;;;;5124020;28;20535;-41
2022/10/05 11:11:57;;;;;;;3.47;2.20;;;19.20;99.90;;;;;;5118926;28;20437;-40
2022/10/05 11:15:10;;;;;;;3.67;2.60;;;19.30;99.90;;;;;;5131008;27;20456;-46
2022/10/05 11:17:56;;;;;;;3.53;2.63;;;19.50;99.90;;;;;;5093050;28;20456;-43
2022/10/05 11:21:08;;;;;;;6.20;4.57;;;19.70;99.90;;;;;;5118156;28;20456;-47
2022/10/05 11:24:00;;;;;;;6.07;3.67;;;19.80;99.90;;;;;;5097123;28;20478;-46
2022/10/05 11:26:46;;;;;;;11.73;3.93;;;19.90;99.90;;;;;;5114162;28;20587;-46
2022/10/05 11:29:47;;;;;;;6.70;3.57;;;20.00;99.90;;;;;;5117311;28;20444;-45
2022/10/05 11:32:41;;;;;;;3.70;2.93;;;19.90;99.90;;;;;;5103927;28;20448;-44
2022/10/05 11:35:40;;;;;;;4.53;2.70;;;19.70;99.90;;;;;;5116543;28;20471;-44
2022/10/05 11:38:31;;;;;;;3.43;2.90;;;19.50;99.90;;;;;;5089664;28;20447;-48
2022/10/05 11:41:36;;;;;;;6.40;2.63;;;19.40;99.90;;;;;;5117713;28;20421;-46
2022/10/05 11:44:37;;;;;;;5.57;3.23;;;19.60;99.90;;;;;;5098386;28;20454;-46
2022/10/05 11:47:12;;;;;;;8.73;4.23;;;19.80;99.90;;;;;;5095281;28;20489;-44
2022/10/05 11:49:43;;;;;;;3.40;2.53;;;19.90;99.90;;;;;;5096255;28;20481;-48
2022/10/05 11:52:19;;;;;;;4.80;3.20;;;19.80;99.90;;;;;;5105234;28;20564;-48
2022/10/05 11:55:04;;;;;;;4.53;2.57;;;19.80;99.90;;;;;;5109361;28;20433;-42
2022/10/05 11:57:38;;;;;;;3.77;2.77;;;19.70;99.90;;;;;;5119535;28;20504;-46
2022/10/05 12:00:14;;;;;;;4.80;2.80;;;19.70;99.90;;;;;;5119230;28;20471;-49
2022/10/05 12:03:17;;;;;;;4.10;2.90;;;19.60;99.90;;;;;;5119200;28;20981;-48
2022/10/05 12:06:07;;;;;;;6.03;3.37;;;19.60;99.90;;;;;;5114999;28;20497;-43
2022/10/05 12:08:45;;;;;;;4.10;2.10;;;19.50;99.90;;;;;;5115801;28;20457;-45
2022/10/05 12:11:27;;;;;;;4.00;2.67;;;19.50;99.90;;;;;;5099062;28;20794;-45
2022/10/05 12:14:00;;;;;;;6.10;3.10;;;19.50;99.90;;;;;;5098679;28;20434;-45
2022/10/05 12:16:33;;;;;;;3.70;3.40;;;19.50;99.90;;;;;;5098415;28;20529;-43
2022/10/05 12:19:09;;;;;;;3.47;3.03;;;19.60;99.90;;;;;;5097630;28;20471;-44
2022/10/05 12:21:42;;;;;;;3.93;2.53;;;19.70;99.90;;;;;;5097611;28;20438;-44
2022/10/05 12:24:16;;;;;;;3.40;2.40;;;19.80;99.90;;;;;;5097221;28;20503;-45
2022/10/05 12:26:49;;;;;;;5.33;3.03;;;20.00;99.90;;;;;;5096905;28;20475;-41
2022/10/05 12:29:23;;;;;;;6.87;3.30;;;20.30;99.90;;;;;;5096990;28;20433;-49
2022/10/05 12:31:57;;;;;;;3.13;2.83;;;20.40;99.90;;;;;;5097121;28;20432;-45
2022/10/05 12:34:36;;;;;;;5.23;2.67;;;20.50;99.90;;;;;;5096787;28;20448;-43
2022/10/05 12:37:15;;;;;;;2.33;2.00;;;20.70;99.90;;;;;;5096875;28;20514;-44
2022/10/05 12:39:54;;;;;;;2.43;2.23;;;20.70;99.90;;;;;;5098651;28;20490;-45
2022/10/05 12:42:30;;;;;;;2.77;2.53;;;20.80;99.90;;;;;;5098547;28;20433;-45
2022/10/05 12:45:10;;;;;;;3.93;2.57;;;20.80;99.90;;;;;;5102543;28;20526;-45
2022/10/05 12:47:52;;;;;;;3.07;2.53;;;20.80;99.90;;;;;;5118617;28;20480;-45
2022/10/05 12:50:23;;;;;;;3.57;2.43;;;20.90;99.90;;;;;;5119000;28;20854;-45
2022/10/05 12:53:02;;;;;;;2.90;2.03;;;21.00;99.90;;;;;;5119609;28;20472;-45
2022/10/05 12:55:36;;;;;;;9.00;3.10;;;21.10;99.90;;;;;;5107969;28;20446;-42
2022/10/05 12:58:18;;;;;;;2.20;2.00;;;21.10;99.90;;;;;;5107565;28;20448;-45
2022/10/05 13:00:56;;;;;;;2.73;2.53;;;21.20;99.90;;;;;;5118173;28;20429;-45
2022/10/05 13:03:26;;;;;;;2.67;2.13;;;21.70;99.90;;;;;;5114522;28;20462;-43
2022/10/05 13:06:03;;;;;;;3.97;2.17;;;21.20;99.90;;;;;;5105811;28;20473;-41
2022/10/05 13:08:39;;;;;;;2.83;2.53;;;21.30;99.90;;;;;;5105219;28;20493;-44
2022/10/05 13:11:14;;;;;;;4.30;1.83;;;21.50;99.90;;;;;;5115051;28;20458;-44
2022/10/05 13:13:51;;;;;;;2.83;2.33;;;21.50;99.90;;;;;;5103915;28;20897;-43
2022/10/05 13:16:28;;;;;;;2.60;1.90;;;21.40;99.90;;;;;;5106289;28;20429;-46
2022/10/05 13:19:19;;;;;;;3.63;2.30;;;21.30;99.90;;;;;;5114707;28;20428;-47
2022/10/05 13:22:27;;;;;;;3.13;2.50;;;21.40;99.90;;;;;;5117993;28;20468;-44
2022/10/05 13:25:06;;;;;;;2.60;2.23;;;21.30;99.90;;;;;;5102008;28;20461;-45
2022/10/05 13:27:36;;;;;;;2.50;2.30;;;21.20;99.90;;;;;;5103059;28;20552;-43
2022/10/05 13:30:12;;;;;;;3.70;2.10;;;21.20;99.90;;;;;;5108621;28;20499;-46
2022/10/05 13:32:43;;;;;;;4.60;2.43;;;21.20;99.90;;;;;;5112377;28;20447;-46
2022/10/05 13:35:26;;;;;;;2.20;1.60;;;21.20;99.90;;;;;;5100712;28;20476;-43
2022/10/05 13:38:02;;;;;;;3.00;2.23;;;21.20;99.90;;;;;;5109986;28;20446;-43
2022/10/05 13:40:35;;;;;;;4.27;2.60;;;21.20;99.90;;;;;;5096856;28;20522;-44
2022/10/05 13:43:12;;;;;;;3.50;2.30;;;21.20;99.90;;;;;;5111501;28;20873;-45
2022/10/05 13:45:44;;;;;;;2.60;2.03;;;21.20;99.90;;;;;;5117216;28;20471;-46
2022/10/05 13:48:25;;;;;;;2.07;1.80;;;21.20;99.90;;;;;;5117561;28;20460;-43
2022/10/05 13:51:07;;;;;;;2.73;2.07;;;21.20;99.90;;;;;;5117875;28;20421;-43
2022/10/05 13:53:46;;;;;;;2.60;1.97;;;21.20;99.90;;;;;;5117826;28;20483;-42
2022/10/05 13:56:19;;;;;;;2.10;1.90;;;21.30;99.90;;;;;;5117361;28;20424;-43
2022/10/05 13:58:54;;;;;;;3.97;2.30;;;21.30;99.90;;;;;;5117821;28;20457;-45